createdAt,value
2023-12-04T00:01:17.697Z,16.25
2023-12-04T00:03:44.796Z,16.33
2023-12-04T00:06:12.682Z,17.27
2023-12-04T00:08:39.658Z,15.25
2023-12-04T00:11:07.033Z,16.70
2023-12-04T00:13:34.256Z,15.63
2023-12-04T00:16:01.053Z,14.50
2023-12-04T00:18:27.875Z,16.60
2023-12-04T00:20:54.650Z,16.27
2023-12-04T00:23:21.326Z,17.20
2023-12-04T00:25:48.083Z,16.27
2023-12-04T00:28:14.884Z,15.90
2023-12-04T00:30:41.741Z,15.82
2023-12-04T00:33:08.562Z,16.23
2023-12-04T00:35:35.355Z,16.45
2023-12-04T00:38:02.047Z,15.80
2023-12-04T00:40:28.934Z,14.90
2023-12-04T00:42:55.657Z,17.13
2023-12-04T00:45:22.349Z,14.32
2023-12-04T00:47:49.136Z,16.20
2023-12-04T00:50:15.926Z,15.32
2023-12-04T00:52:42.647Z,15.30
2023-12-04T00:55:09.565Z,14.88
2023-12-04T00:57:36.323Z,14.25
2023-12-04T01:00:03.890Z,14.00
2023-12-04T01:02:31.328Z,13.95
2023-12-04T01:04:58.395Z,13.60
2023-12-04T01:07:25.188Z,13.63
2023-12-04T01:09:52.143Z,13.93
2023-12-04T01:12:18.826Z,13.40
2023-12-04T01:14:45.582Z,13.82
2023-12-04T01:17:12.331Z,13.63
2023-12-04T01:19:39.018Z,13.13
2023-12-04T01:22:06.577Z,12.73
2023-12-04T01:24:33.754Z,13.38
2023-12-04T01:27:00.831Z,14.20
2023-12-04T01:29:27.536Z,13.68
2023-12-04T01:31:54.358Z,14.82
2023-12-04T01:34:21.044Z,13.05
2023-12-04T01:36:47.791Z,14.77
2023-12-04T01:39:14.527Z,12.75
2023-12-04T01:41:41.443Z,14.00
2023-12-04T01:44:08.737Z,13.63
2023-12-04T01:46:35.609Z,14.25
2023-12-04T01:49:04.237Z,13.88
2023-12-04T01:51:31.609Z,16.30
2023-12-04T01:54:01.447Z,16.08
2023-12-04T01:56:28.255Z,15.52
2023-12-04T01:58:55.579Z,17.50
2023-12-04T02:01:23.256Z,16.50
2023-12-04T02:03:50.767Z,16.10
2023-12-04T02:06:21.039Z,16.13
2023-12-04T02:08:49.244Z,16.73
2023-12-04T02:11:16.002Z,17.13
2023-12-04T02:13:42.781Z,17.73
2023-12-04T02:16:12.937Z,17.48
2023-12-04T02:18:40.086Z,18.17
2023-12-04T02:21:07.190Z,18.52
2023-12-04T02:23:33.970Z,18.02
2023-12-04T02:26:09.972Z,18.73
2023-12-04T02:28:38.117Z,18.73
2023-12-04T02:31:06.235Z,19.40
2023-12-04T02:33:35.738Z,17.85
2023-12-04T02:36:05.083Z,18.80
2023-12-04T02:38:32.256Z,17.92
2023-12-04T02:40:59.387Z,19.55
2023-12-04T02:43:26.161Z,18.27
2023-12-04T02:45:52.840Z,18.60
2023-12-04T02:48:19.722Z,19.60
2023-12-04T02:50:46.460Z,19.42
2023-12-04T02:53:13.150Z,19.17
2023-12-04T02:55:39.880Z,18.75
2023-12-04T02:58:06.562Z,20.27
2023-12-04T03:00:33.323Z,18.83
2023-12-04T03:03:00.278Z,17.60
2023-12-04T03:05:27.063Z,17.58
2023-12-04T03:07:54.423Z,18.05
2023-12-04T03:10:21.205Z,18.02
2023-12-04T03:12:47.969Z,18.00
2023-12-04T03:15:14.819Z,18.63
2023-12-04T03:17:41.520Z,18.35
2023-12-04T03:20:09.765Z,18.27
2023-12-04T03:22:37.803Z,16.73
2023-12-04T03:25:05.195Z,17.80
2023-12-04T03:27:32.056Z,17.00
2023-12-04T03:29:58.831Z,18.73
2023-12-04T03:32:25.543Z,18.08
2023-12-04T03:34:52.331Z,18.35
2023-12-04T03:37:19.026Z,17.35
2023-12-04T03:39:45.785Z,16.83
2023-12-04T03:42:12.497Z,17.75
2023-12-04T03:44:39.280Z,17.08
2023-12-04T03:47:06.029Z,16.33
2023-12-04T03:49:32.764Z,16.23
2023-12-04T03:51:59.563Z,17.33
2023-12-04T03:54:26.271Z,15.75
2023-12-04T03:56:52.984Z,16.42
2023-12-04T03:59:19.681Z,17.88
2023-12-04T04:01:46.504Z,15.98
2023-12-04T04:04:13.322Z,16.80
2023-12-04T04:06:40.149Z,16.52
2023-12-04T04:09:07.071Z,16.60
2023-12-04T04:11:33.871Z,16.35
2023-12-04T04:14:00.639Z,16.63
2023-12-04T04:16:27.322Z,16.77
2023-12-04T04:18:54.547Z,17.17
2023-12-04T04:21:21.305Z,17.90
2023-12-04T04:23:47.976Z,16.73
2023-12-04T04:26:14.668Z,15.05
2023-12-04T04:28:41.334Z,15.60
2023-12-04T04:31:08.259Z,16.23
2023-12-04T04:33:35.008Z,15.75
2023-12-04T04:36:01.820Z,14.73
2023-12-04T04:38:28.506Z,16.63
2023-12-04T04:40:55.231Z,15.68
2023-12-04T04:43:22.124Z,15.50
2023-12-04T04:45:48.805Z,14.90
2023-12-04T04:48:15.616Z,14.15
2023-12-04T04:50:42.380Z,14.48
2023-12-04T04:53:09.105Z,14.43
2023-12-04T04:55:47.247Z,14.07
2023-12-04T04:58:16.609Z,14.30
2023-12-04T05:00:43.834Z,16.70
2023-12-04T05:03:10.566Z,16.20
2023-12-04T05:05:37.281Z,16.77
2023-12-04T05:08:04.149Z,17.58
2023-12-04T05:10:30.984Z,15.57
2023-12-04T05:12:57.711Z,16.20
2023-12-04T05:15:24.487Z,15.60
2023-12-04T05:17:52.262Z,15.70
2023-12-04T05:20:19.127Z,16.63
2023-12-04T05:22:45.853Z,16.70
2023-12-04T05:25:12.643Z,16.58
2023-12-04T05:27:39.431Z,16.15
2023-12-04T05:30:06.800Z,16.13
2023-12-04T05:32:33.577Z,16.30
2023-12-04T05:35:00.315Z,16.65
2023-12-04T05:37:26.994Z,15.50
2023-12-04T05:39:53.766Z,15.25
2023-12-04T05:42:20.449Z,15.18
2023-12-04T05:44:47.164Z,15.45
2023-12-04T05:47:13.871Z,15.20
2023-12-04T05:49:40.611Z,14.60
2023-12-04T05:52:07.742Z,15.25
2023-12-04T05:54:34.493Z,14.60
2023-12-04T05:57:01.286Z,16.17
2023-12-04T05:59:27.968Z,15.80
2023-12-04T06:01:54.735Z,16.88
2023-12-04T06:04:21.448Z,16.90
2023-12-04T06:06:48.174Z,14.57
2023-12-04T06:09:17.203Z,15.63
2023-12-04T06:11:46.900Z,15.90
2023-12-04T06:14:14.469Z,15.77
2023-12-04T06:16:41.191Z,17.13
2023-12-04T06:19:07.978Z,16.02
2023-12-04T06:21:34.816Z,17.17
2023-12-04T06:24:03.461Z,18.17
2023-12-04T06:26:33.133Z,16.10
2023-12-04T06:29:00.068Z,16.38
2023-12-04T06:31:27.107Z,16.17
2023-12-04T06:33:54.213Z,15.98
2023-12-04T06:36:22.610Z,16.80
2023-12-04T06:38:52.221Z,17.80
2023-12-04T06:41:19.825Z,17.30
2023-12-04T06:43:46.804Z,17.25
2023-12-04T06:46:16.456Z,16.45
2023-12-04T06:48:44.739Z,16.20
2023-12-04T06:51:11.457Z,16.65
2023-12-04T06:53:38.156Z,16.85
2023-12-04T06:56:05.491Z,16.70
2023-12-04T06:58:32.196Z,17.27
2023-12-04T07:00:58.977Z,16.33
2023-12-04T07:03:25.838Z,16.80
2023-12-04T07:05:52.593Z,18.38
2023-12-04T07:08:19.321Z,16.60
2023-12-04T07:10:46.002Z,33.53
2023-12-04T07:13:14.087Z,40.33
2023-12-04T07:15:40.932Z,21.83
2023-12-04T07:18:07.747Z,23.05
2023-12-04T07:20:34.531Z,19.05
2023-12-04T07:23:01.263Z,15.68
2023-12-04T07:25:28.783Z,16.20
2023-12-04T07:27:55.487Z,22.67
2023-12-04T07:30:22.242Z,16.70
2023-12-04T07:32:48.944Z,17.42
2023-12-04T07:35:15.754Z,17.63
2023-12-04T07:37:42.435Z,17.15
2023-12-04T07:40:10.813Z,18.40
2023-12-04T07:42:38.244Z,16.85
2023-12-04T07:45:05.356Z,17.63
2023-12-04T07:47:32.180Z,16.75
2023-12-04T07:49:58.950Z,17.55
2023-12-04T07:52:25.681Z,17.48
2023-12-04T07:54:52.850Z,16.40
2023-12-04T07:57:20.348Z,17.55
2023-12-04T07:59:49.332Z,17.95
2023-12-04T08:02:17.538Z,17.13
2023-12-04T08:04:44.318Z,18.27
2023-12-04T08:07:11.145Z,20.55
2023-12-04T08:09:37.870Z,16.80
2023-12-04T08:12:04.719Z,17.73
2023-12-04T08:14:31.424Z,20.00
2023-12-04T08:16:59.136Z,19.63
2023-12-04T08:19:26.005Z,19.00
2023-12-04T08:21:53.002Z,19.65
2023-12-04T08:24:19.738Z,17.98
2023-12-04T08:26:47.088Z,18.38
2023-12-04T08:29:14.386Z,19.00
2023-12-04T08:31:41.534Z,18.25
2023-12-04T08:34:08.254Z,18.48
2023-12-04T08:36:45.013Z,19.10
2023-12-04T08:39:13.889Z,25.38
2023-12-04T08:41:47.639Z,17.25
2023-12-04T08:44:18.342Z,17.52
2023-12-04T08:46:45.737Z,18.17
2023-12-04T08:49:12.584Z,18.40
2023-12-04T08:51:39.422Z,18.08
2023-12-04T08:54:17.739Z,16.65
2023-12-04T08:56:45.691Z,18.15
2023-12-04T08:59:13.930Z,17.05
2023-12-04T09:01:41.200Z,17.13
2023-12-04T09:04:09.843Z,17.05
2023-12-04T09:09:10.029Z,17.70
2023-12-04T09:11:43.057Z,17.17
2023-12-04T09:14:10.672Z,19.10
2023-12-04T09:16:37.381Z,17.90
2023-12-04T09:19:04.378Z,18.27
2023-12-04T09:21:31.275Z,17.75
2023-12-04T09:23:58.105Z,16.65
2023-12-04T09:26:25.041Z,17.90
2023-12-04T09:28:53.047Z,22.20
2023-12-04T09:31:20.606Z,18.20
2023-12-04T09:33:48.542Z,18.02
2023-12-04T09:36:15.701Z,18.35
2023-12-04T09:38:42.505Z,17.95
2023-12-04T09:41:11.655Z,19.75
2023-12-04T09:43:39.020Z,18.90
2023-12-04T09:46:06.460Z,16.85
2023-12-04T09:48:35.059Z,18.73
2023-12-04T09:51:03.466Z,18.23
2023-12-04T09:53:31.625Z,16.05
2023-12-04T09:56:01.029Z,18.63
2023-12-04T09:58:33.395Z,18.13
2023-12-04T10:01:02.114Z,18.55
2023-12-04T10:03:30.958Z,18.05
2023-12-04T10:05:58.483Z,41.70
2023-12-04T10:08:25.265Z,81.32
2023-12-04T10:10:52.020Z,79.20
2023-12-04T10:13:55.220Z,32.70
2023-12-04T10:16:05.767Z,83.50
2023-12-04T10:18:33.043Z,27.10
2023-12-04T10:21:00.530Z,24.08
2023-12-04T10:23:53.676Z,24.10
2023-12-04T10:26:20.369Z,39.30
2023-12-04T10:29:04.441Z,39.80
2023-12-04T10:31:35.525Z,27.77
2023-12-04T10:34:03.757Z,29.05
2023-12-04T10:36:30.970Z,23.65
2023-12-04T10:39:01.354Z,22.50
2023-12-04T10:41:28.551Z,28.65
2023-12-04T10:44:01.378Z,22.65
2023-12-04T10:46:37.399Z,18.00
2023-12-04T10:49:06.794Z,18.10
2023-12-04T10:51:35.624Z,18.52
2023-12-04T10:54:02.913Z,20.05
2023-12-04T10:56:39.177Z,18.30
2023-12-04T10:59:12.070Z,16.10
2023-12-04T11:01:42.640Z,17.55
2023-12-04T11:04:14.759Z,16.00
2023-12-04T11:06:42.180Z,17.70
2023-12-04T11:09:10.632Z,15.32
2023-12-04T11:11:45.284Z,17.13
2023-12-04T11:14:16.262Z,14.88
2023-12-04T11:16:55.153Z,15.93
2023-12-04T11:19:42.100Z,16.90
2023-12-04T11:22:10.862Z,14.85
2023-12-04T11:24:38.345Z,13.98
2023-12-04T11:27:05.630Z,12.15
2023-12-04T11:29:33.168Z,12.23
2023-12-04T11:31:59.856Z,11.70
2023-12-04T11:34:26.678Z,12.02
2023-12-04T11:36:53.724Z,12.15
2023-12-04T11:39:20.917Z,10.60
2023-12-04T11:41:47.757Z,10.98
2023-12-04T11:44:17.954Z,11.32
2023-12-04T11:46:57.692Z,11.50
2023-12-04T11:49:32.032Z,10.70
2023-12-04T11:52:05.545Z,10.45
2023-12-04T11:54:59.788Z,11.27
2023-12-04T11:57:30.179Z,11.70
2023-12-04T12:00:18.870Z,11.63
2023-12-04T12:03:15.064Z,10.15
2023-12-04T12:05:36.416Z,12.45
2023-12-04T12:08:07.608Z,10.23
2023-12-04T12:10:35.044Z,12.07
2023-12-04T12:13:02.760Z,12.55
2023-12-04T12:15:30.489Z,10.23
2023-12-04T12:17:57.438Z,12.77
2023-12-04T12:20:24.290Z,10.98
2023-12-04T12:22:51.280Z,9.27
2023-12-04T12:25:19.457Z,9.25
2023-12-04T12:27:46.922Z,7.63
2023-12-04T12:30:14.388Z,8.43
2023-12-04T12:32:41.194Z,7.60
2023-12-04T12:35:11.071Z,7.53
2023-12-04T12:37:40.388Z,6.13
2023-12-04T12:40:10.755Z,7.47
2023-12-04T12:42:40.031Z,9.40
2023-12-04T12:45:07.258Z,7.18
2023-12-04T12:47:34.000Z,6.82
2023-12-04T12:50:03.160Z,58.88
2023-12-04T12:52:30.800Z,6.97
2023-12-04T12:54:57.486Z,20.25
2023-12-04T12:57:24.312Z,8.18
2023-12-04T12:59:51.042Z,8.85
2023-12-04T13:02:17.923Z,8.02
2023-12-04T13:04:45.863Z,15.15
2023-12-04T13:07:12.950Z,6.10
2023-12-04T13:09:40.246Z,8.30
2023-12-04T13:12:08.030Z,9.68
2023-12-04T13:14:36.722Z,5.63
2023-12-04T13:17:05.051Z,5.50
2023-12-04T13:19:35.772Z,10.00
2023-12-04T13:22:02.978Z,7.90
2023-12-04T13:24:29.668Z,9.23
2023-12-04T13:26:56.372Z,7.60
2023-12-04T13:29:24.012Z,7.28
2023-12-04T13:31:51.717Z,7.10
2023-12-04T13:34:18.989Z,6.40
2023-12-04T13:36:45.814Z,6.32
2023-12-04T13:39:17.917Z,6.80
2023-12-04T13:42:04.977Z,7.35
2023-12-04T13:44:32.015Z,5.68
2023-12-04T13:46:58.748Z,5.63
2023-12-04T13:49:25.486Z,6.22
2023-12-04T13:51:52.311Z,5.13
2023-12-04T13:54:22.598Z,6.32
2023-12-04T13:56:54.547Z,6.25
2023-12-04T13:59:22.784Z,5.88
2023-12-04T14:01:53.667Z,8.60
2023-12-04T14:04:21.820Z,6.38
2023-12-04T14:06:49.059Z,6.70
2023-12-04T14:09:16.407Z,5.60
2023-12-04T14:11:47.282Z,5.90
2023-12-04T14:14:14.278Z,9.20
2023-12-04T14:16:43.112Z,8.38
2023-12-04T14:19:10.170Z,13.63
2023-12-04T14:21:37.637Z,9.23
2023-12-04T14:24:04.573Z,5.60
2023-12-04T14:26:31.315Z,36.08
2023-12-04T14:28:59.114Z,10.45
2023-12-04T14:31:26.473Z,11.52
2023-12-04T14:33:54.781Z,7.93
2023-12-04T14:36:22.143Z,17.13
2023-12-04T14:38:49.835Z,8.93
2023-12-04T14:41:16.743Z,12.77
2023-12-04T14:43:44.005Z,9.15
2023-12-04T14:46:11.234Z,8.98
2023-12-04T14:48:41.881Z,5.57
2023-12-04T14:51:12.996Z,6.20
2023-12-04T14:54:07.867Z,6.18
2023-12-04T14:56:37.518Z,5.55
2023-12-04T14:59:07.171Z,5.38
2023-12-04T15:02:12.495Z,7.35
2023-12-04T15:04:54.261Z,6.32
2023-12-04T15:07:21.366Z,5.18
2023-12-04T15:10:07.008Z,5.88
2023-12-04T15:12:36.498Z,6.00
2023-12-04T15:15:26.728Z,5.57
2023-12-04T15:17:57.329Z,6.30
2023-12-04T15:20:27.041Z,5.43
2023-12-04T15:22:53.776Z,8.00
2023-12-04T15:25:21.031Z,6.97
2023-12-04T15:27:48.032Z,6.30
2023-12-04T15:30:15.623Z,6.60
2023-12-04T15:32:42.658Z,6.05
2023-12-04T15:35:11.167Z,6.28
2023-12-04T15:37:40.800Z,6.28
2023-12-04T15:40:08.035Z,7.68
2023-12-04T15:42:34.812Z,6.88
2023-12-04T15:45:01.795Z,7.18
2023-12-04T15:47:28.666Z,7.35
2023-12-04T15:49:55.516Z,7.28
2023-12-04T15:52:26.006Z,9.93
2023-12-04T15:54:53.393Z,6.38
2023-12-04T15:57:20.180Z,11.18
2023-12-04T15:59:47.018Z,10.18
2023-12-04T16:02:14.677Z,8.20
2023-12-04T16:04:41.636Z,8.55
2023-12-04T16:07:08.730Z,6.85
2023-12-04T16:09:35.795Z,11.43
2023-12-04T16:12:02.700Z,7.35
2023-12-04T16:14:29.437Z,8.82
2023-12-04T16:16:56.956Z,7.32
2023-12-04T16:19:24.538Z,8.65
2023-12-04T16:21:51.294Z,6.95
2023-12-04T16:24:21.781Z,6.85
2023-12-04T16:26:48.580Z,7.32
2023-12-04T16:29:15.299Z,6.80
2023-12-04T16:31:42.086Z,7.60
2023-12-04T16:34:08.897Z,7.80
2023-12-04T16:36:36.508Z,8.23
2023-12-04T16:39:03.356Z,7.72
2023-12-04T16:41:30.250Z,7.55
2023-12-04T16:43:56.975Z,6.88
2023-12-04T16:46:23.920Z,7.53
2023-12-04T16:48:50.789Z,6.30
2023-12-04T16:51:17.666Z,7.07
2023-12-04T16:53:45.692Z,7.88
2023-12-04T16:56:14.115Z,7.63
2023-12-04T16:58:42.383Z,6.85
2023-12-04T17:01:09.601Z,6.68
2023-12-04T17:03:36.481Z,6.70
2023-12-04T17:06:03.455Z,7.15
2023-12-04T17:08:30.218Z,7.38
2023-12-04T17:10:56.945Z,7.28
2023-12-04T17:13:23.627Z,6.80
2023-12-04T17:15:50.341Z,7.07
2023-12-04T17:18:17.992Z,6.75
2023-12-04T17:20:44.758Z,6.60
2023-12-04T17:23:11.435Z,7.00
2023-12-04T17:25:38.208Z,6.65
2023-12-04T17:28:05.000Z,7.03
2023-12-04T17:30:32.638Z,7.90
2023-12-04T17:32:59.653Z,8.43
2023-12-04T17:35:27.144Z,8.57
2023-12-04T17:37:53.833Z,8.50
2023-12-04T17:40:22.705Z,7.72
2023-12-04T17:42:49.714Z,13.57
2023-12-04T17:45:17.947Z,11.02
2023-12-04T17:47:45.195Z,9.13
2023-12-04T17:50:12.988Z,8.95
2023-12-04T17:52:42.237Z,8.07
2023-12-04T17:55:10.547Z,8.55
2023-12-04T17:57:37.669Z,7.65
2023-12-04T18:00:15.237Z,7.63
2023-12-04T18:02:46.599Z,6.85
2023-12-04T18:05:13.986Z,5.78
2023-12-04T18:07:40.737Z,5.63
2023-12-04T18:10:08.673Z,6.50
2023-12-04T18:12:35.448Z,6.10
2023-12-04T18:15:02.435Z,6.78
2023-12-04T18:17:29.308Z,5.57
2023-12-04T18:19:56.099Z,6.05
2023-12-04T18:22:23.413Z,6.38
2023-12-04T18:24:50.479Z,6.15
2023-12-04T18:27:17.650Z,7.82
2023-12-04T18:29:44.686Z,9.75
2023-12-04T18:32:11.979Z,7.30
2023-12-04T18:34:39.008Z,6.07
2023-12-04T18:37:13.780Z,7.45
2023-12-04T18:39:43.456Z,8.38
2023-12-04T18:42:10.894Z,7.35
2023-12-04T18:44:37.864Z,8.82
2023-12-04T18:47:09.692Z,7.30
2023-12-04T18:49:39.923Z,6.68
2023-12-04T18:52:07.436Z,8.25
2023-12-04T18:54:34.176Z,8.02
2023-12-04T18:57:00.955Z,6.75
2023-12-04T18:59:27.941Z,8.40
2023-12-04T19:01:54.818Z,9.82
2023-12-04T19:04:21.587Z,7.03
2023-12-04T19:06:48.461Z,6.82
2023-12-04T19:09:15.216Z,6.18
2023-12-04T19:11:41.944Z,7.38
2023-12-04T19:14:08.655Z,11.73
2023-12-04T19:16:35.393Z,19.02
2023-12-04T19:19:02.300Z,22.13
2023-12-04T19:21:29.113Z,9.55
2023-12-04T19:23:56.150Z,10.02
2023-12-04T19:26:22.833Z,8.00
2023-12-04T19:28:49.544Z,8.25
2023-12-04T19:31:16.434Z,6.72
2023-12-04T19:33:43.290Z,7.40
2023-12-04T19:36:10.734Z,18.42
2023-12-04T19:38:38.210Z,7.32
2023-12-04T19:41:06.488Z,7.70
2023-12-04T19:43:33.171Z,6.88
2023-12-04T19:46:03.696Z,7.55
2023-12-04T19:48:30.574Z,7.18
2023-12-04T19:50:57.309Z,6.80
2023-12-04T19:53:24.032Z,8.43
2023-12-04T19:55:50.750Z,8.27
2023-12-04T19:58:17.445Z,7.35
2023-12-04T20:00:44.142Z,8.88
2023-12-04T20:03:12.762Z,7.70
2023-12-04T20:05:39.694Z,11.98
2023-12-04T20:08:08.359Z,8.68
2023-12-04T20:10:38.830Z,7.63
2023-12-04T20:13:07.471Z,8.68
2023-12-04T20:15:35.330Z,9.57
2023-12-04T20:18:02.442Z,7.50
2023-12-04T20:20:29.339Z,7.55
2023-12-04T20:22:56.101Z,8.82
2023-12-04T20:25:27.251Z,7.80
2023-12-04T20:27:54.295Z,10.57
2023-12-04T20:30:21.067Z,8.05
2023-12-04T20:32:48.584Z,7.25
2023-12-04T20:35:15.468Z,7.72
2023-12-04T20:37:43.038Z,8.63
2023-12-04T20:40:11.402Z,7.57
2023-12-04T20:42:38.394Z,7.65
2023-12-04T20:45:06.492Z,7.35
2023-12-04T20:47:33.541Z,9.43
2023-12-04T20:50:00.827Z,15.48
2023-12-04T20:52:27.586Z,7.82
2023-12-04T20:54:54.403Z,7.35
2023-12-04T20:57:21.842Z,6.97
2023-12-04T20:59:48.707Z,7.80
2023-12-04T21:02:15.476Z,8.18
2023-12-04T21:04:42.315Z,7.80
2023-12-04T21:07:11.450Z,10.15
2023-12-04T21:09:38.853Z,7.85
2023-12-04T21:12:06.288Z,7.80
2023-12-04T21:14:33.102Z,13.38
2023-12-04T21:17:01.618Z,8.32
2023-12-04T21:19:29.446Z,7.40
2023-12-04T21:21:56.362Z,7.90
2023-12-04T21:24:23.109Z,7.70
2023-12-04T21:26:49.881Z,7.95
2023-12-04T21:29:17.731Z,8.25
2023-12-04T21:31:44.513Z,7.05
2023-12-04T21:34:11.313Z,7.05
2023-12-04T21:36:38.188Z,8.13
2023-12-04T21:39:05.130Z,8.35
2023-12-04T21:41:33.239Z,9.82
2023-12-04T21:44:00.091Z,8.90
2023-12-04T21:46:26.858Z,8.18
2023-12-04T21:48:53.704Z,10.00
2023-12-04T21:51:20.790Z,9.07
2023-12-04T21:53:47.522Z,10.35
2023-12-04T21:56:14.911Z,8.48
2023-12-04T21:58:41.657Z,7.90
2023-12-04T22:01:08.367Z,8.50
2023-12-04T22:03:35.562Z,7.63
2023-12-04T22:06:04.404Z,8.40
2023-12-04T22:08:31.546Z,7.57
2023-12-04T22:10:58.622Z,8.27
2023-12-04T22:13:25.309Z,7.05
2023-12-04T22:15:52.022Z,8.40
2023-12-04T22:18:19.052Z,8.85
2023-12-04T22:20:45.939Z,8.80
2023-12-04T22:23:12.750Z,11.68
2023-12-04T22:25:39.480Z,9.52
2023-12-04T22:28:06.144Z,7.60
2023-12-04T22:30:33.251Z,8.27
2023-12-04T22:33:00.180Z,8.00
2023-12-04T22:35:26.943Z,8.63
2023-12-04T22:37:53.719Z,8.15
2023-12-04T22:40:20.425Z,7.82
2023-12-04T22:42:47.358Z,8.05
2023-12-04T22:45:15.116Z,8.98
2023-12-04T22:47:41.962Z,6.93
2023-12-04T22:50:09.162Z,7.72
2023-12-04T22:52:37.391Z,7.05
2023-12-04T22:55:04.846Z,8.00
2023-12-04T22:57:32.044Z,7.85
2023-12-04T22:59:58.781Z,7.70
2023-12-04T23:02:25.587Z,8.52
2023-12-04T23:04:52.559Z,7.95
2023-12-04T23:07:19.407Z,8.63
2023-12-04T23:09:46.189Z,9.35
2023-12-04T23:12:13.008Z,8.85
2023-12-04T23:14:39.705Z,7.82
2023-12-04T23:17:06.404Z,9.07
2023-12-04T23:19:33.171Z,9.20
2023-12-04T23:21:59.908Z,7.90
2023-12-04T23:24:26.593Z,8.77
2023-12-04T23:26:53.311Z,8.88
2023-12-04T23:29:20.815Z,8.80
2023-12-04T23:31:47.607Z,7.95
2023-12-04T23:34:14.397Z,8.50
2023-12-04T23:36:41.700Z,8.38
2023-12-04T23:39:08.775Z,8.05
2023-12-04T23:41:35.556Z,7.72
2023-12-04T23:44:02.492Z,9.18
2023-12-04T23:46:29.299Z,9.00
2023-12-04T23:48:56.171Z,8.38
2023-12-04T23:51:22.943Z,9.13
2023-12-04T23:53:50.324Z,9.82
2023-12-04T23:56:17.065Z,8.10
2023-12-04T23:58:44.455Z,9.10
